sensor_id;sensor_type;location;lat;lon;timestamp;P1;durP1;ratioP1;P2;durP2;ratioP2
9007;SDS011;62813;51.424;6.762;2022-10-31T00:00:59;22.73;;;10.87;;
9007;SDS011;62813;51.424;6.762;2022-10-31T00:03:27;20.57;;;11.27;;
9007;SDS011;62813;51.424;6.762;2022-10-31T00:05:53;19.00;;;10.90;;
9007;SDS011;62813;51.424;6.762;2022-10-31T00:08:20;21.80;;;10.70;;
9007;SDS011;62813;51.424;6.762;2022-10-31T00:10:46;17.40;;;9.57;;
9007;SDS011;62813;51.424;6.762;2022-10-31T00:13:13;24.63;;;10.27;;
9007;SDS011;62813;51.424;6.762;2022-10-31T00:15:40;16.27;;;9.13;;
9007;SDS011;62813;51.424;6.762;2022-10-31T00:18:08;22.23;;;10.40;;
9007;SDS011;62813;51.424;6.762;2022-10-31T00:20:36;25.90;;;9.70;;
9007;SDS011;62813;51.424;6.762;2022-10-31T00:23:03;22.27;;;9.63;;
9007;SDS011;62813;51.424;6.762;2022-10-31T00:25:35;16.33;;;8.80;;
9007;SDS011;62813;51.424;6.762;2022-10-31T00:28:04;15.93;;;8.67;;
9007;SDS011;62813;51.424;6.762;2022-10-31T00:30:33;17.40;;;8.43;;
9007;SDS011;62813;51.424;6.762;2022-10-31T00:33:00;17.27;;;9.97;;
9007;SDS011;62813;51.424;6.762;2022-10-31T00:35:27;14.40;;;8.50;;
9007;SDS011;62813;51.424;6.762;2022-10-31T00:37:53;21.67;;;9.57;;
9007;SDS011;62813;51.424;6.762;2022-10-31T00:40:20;18.97;;;9.67;;
9007;SDS011;62813;51.424;6.762;2022-10-31T00:42:46;13.77;;;8.33;;
9007;SDS011;62813;51.424;6.762;2022-10-31T00:45:13;17.73;;;8.80;;
9007;SDS011;62813;51.424;6.762;2022-10-31T00:47:39;15.43;;;8.90;;
9007;SDS011;62813;51.424;6.762;2022-10-31T00:50:06;20.33;;;8.73;;
9007;SDS011;62813;51.424;6.762;2022-10-31T00:52:33;13.30;;;8.57;;
9007;SDS011;62813;51.424;6.762;2022-10-31T00:55:00;15.73;;;8.77;;
9007;SDS011;62813;51.424;6.762;2022-10-31T00:57:26;13.53;;;8.07;;
9007;SDS011;62813;51.424;6.762;2022-10-31T00:59:53;12.57;;;8.17;;
9007;SDS011;62813;51.424;6.762;2022-10-31T01:02:20;12.47;;;7.87;;
9007;SDS011;62813;51.424;6.762;2022-10-31T01:04:47;19.07;;;9.07;;
9007;SDS011;62813;51.424;6.762;2022-10-31T01:07:14;13.17;;;7.93;;
9007;SDS011;62813;51.424;6.762;2022-10-31T01:09:41;17.03;;;8.50;;
9007;SDS011;62813;51.424;6.762;2022-10-31T01:12:07;16.37;;;8.67;;
9007;SDS011;62813;51.424;6.762;2022-10-31T01:14:34;15.03;;;8.07;;
9007;SDS011;62813;51.424;6.762;2022-10-31T01:17:01;12.80;;;8.20;;
9007;SDS011;62813;51.424;6.762;2022-10-31T01:19:27;13.23;;;8.50;;
9007;SDS011;62813;51.424;6.762;2022-10-31T01:21:54;13.57;;;8.30;;
9007;SDS011;62813;51.424;6.762;2022-10-31T01:24:21;13.40;;;7.90;;
9007;SDS011;62813;51.424;6.762;2022-10-31T01:26:48;15.83;;;7.97;;
9007;SDS011;62813;51.424;6.762;2022-10-31T01:29:14;14.57;;;7.77;;
9007;SDS011;62813;51.424;6.762;2022-10-31T01:31:41;12.73;;;7.87;;
9007;SDS011;62813;51.424;6.762;2022-10-31T01:34:08;14.77;;;8.50;;
9007;SDS011;62813;51.424;6.762;2022-10-31T01:36:43;15.50;;;7.93;;
9007;SDS011;62813;51.424;6.762;2022-10-31T01:39:12;14.37;;;7.50;;
9007;SDS011;62813;51.424;6.762;2022-10-31T01:41:44;14.27;;;7.50;;
9007;SDS011;62813;51.424;6.762;2022-10-31T01:46:43;17.27;;;7.87;;
9007;SDS011;62813;51.424;6.762;2022-10-31T01:49:18;16.33;;;7.73;;
9007;SDS011;62813;51.424;6.762;2022-10-31T01:51:52;15.67;;;7.60;;
9007;SDS011;62813;51.424;6.762;2022-10-31T01:54:23;15.90;;;8.20;;
9007;SDS011;62813;51.424;6.762;2022-10-31T01:56:53;14.77;;;6.77;;
9007;SDS011;62813;51.424;6.762;2022-10-31T01:59:22;15.67;;;7.83;;
9007;SDS011;62813;51.424;6.762;2022-10-31T02:01:53;15.10;;;7.13;;
9007;SDS011;62813;51.424;6.762;2022-10-31T02:04:20;15.70;;;7.37;;
9007;SDS011;62813;51.424;6.762;2022-10-31T02:07:00;11.30;;;7.53;;
9007;SDS011;62813;51.424;6.762;2022-10-31T02:09:31;15.27;;;8.27;;
9007;SDS011;62813;51.424;6.762;2022-10-31T02:12:00;13.10;;;8.23;;
9007;SDS011;62813;51.424;6.762;2022-10-31T02:14:27;15.03;;;8.17;;
9007;SDS011;62813;51.424;6.762;2022-10-31T02:16:56;15.63;;;8.20;;
9007;SDS011;62813;51.424;6.762;2022-10-31T02:22:05;15.70;;;8.27;;
9007;SDS011;62813;51.424;6.762;2022-10-31T02:30:22;17.30;;;7.83;;
9007;SDS011;62813;51.424;6.762;2022-10-31T02:33:10;17.50;;;7.60;;
9007;SDS011;62813;51.424;6.762;2022-10-31T02:35:51;16.03;;;8.00;;
9007;SDS011;62813;51.424;6.762;2022-10-31T02:44:18;14.63;;;7.40;;
9007;SDS011;62813;51.424;6.762;2022-10-31T02:46:59;12.07;;;7.67;;
9007;SDS011;62813;51.424;6.762;2022-10-31T02:52:17;13.23;;;7.47;;
9007;SDS011;62813;51.424;6.762;2022-10-31T02:54:46;12.47;;;7.60;;
9007;SDS011;62813;51.424;6.762;2022-10-31T02:57:15;15.23;;;7.50;;
9007;SDS011;62813;51.424;6.762;2022-10-31T02:59:47;17.47;;;7.73;;
9007;SDS011;62813;51.424;6.762;2022-10-31T03:02:29;12.43;;;7.73;;
9007;SDS011;62813;51.424;6.762;2022-10-31T03:11:07;12.30;;;7.87;;
9007;SDS011;62813;51.424;6.762;2022-10-31T03:13:45;16.53;;;8.33;;
9007;SDS011;62813;51.424;6.762;2022-10-31T03:16:25;15.60;;;8.40;;
9007;SDS011;62813;51.424;6.762;2022-10-31T03:19:02;13.97;;;8.17;;
9007;SDS011;62813;51.424;6.762;2022-10-31T03:21:34;16.43;;;8.13;;
9007;SDS011;62813;51.424;6.762;2022-10-31T03:24:14;15.93;;;7.63;;
9007;SDS011;62813;51.424;6.762;2022-10-31T03:26:44;12.77;;;7.93;;
9007;SDS011;62813;51.424;6.762;2022-10-31T03:29:16;18.33;;;8.00;;
9007;SDS011;62813;51.424;6.762;2022-10-31T03:32:00;11.40;;;7.33;;
9007;SDS011;62813;51.424;6.762;2022-10-31T03:34:29;17.47;;;7.73;;
9007;SDS011;62813;51.424;6.762;2022-10-31T03:36:59;17.90;;;7.93;;
9007;SDS011;62813;51.424;6.762;2022-10-31T03:39:29;18.17;;;7.90;;
9007;SDS011;62813;51.424;6.762;2022-10-31T03:42:11;12.37;;;7.43;;
9007;SDS011;62813;51.424;6.762;2022-10-31T03:44:42;17.47;;;8.40;;
9007;SDS011;62813;51.424;6.762;2022-10-31T03:47:13;15.30;;;7.23;;
9007;SDS011;62813;51.424;6.762;2022-10-31T03:49:40;13.33;;;8.23;;
9007;SDS011;62813;51.424;6.762;2022-10-31T03:52:10;19.20;;;8.10;;
9007;SDS011;62813;51.424;6.762;2022-10-31T03:54:46;12.93;;;7.50;;
9007;SDS011;62813;51.424;6.762;2022-10-31T03:57:29;13.27;;;7.60;;
9007;SDS011;62813;51.424;6.762;2022-10-31T04:00:12;18.57;;;7.50;;
9007;SDS011;62813;51.424;6.762;2022-10-31T04:02:42;15.67;;;7.70;;
9007;SDS011;62813;51.424;6.762;2022-10-31T04:05:27;11.50;;;7.33;;
9007;SDS011;62813;51.424;6.762;2022-10-31T04:07:55;14.80;;;8.07;;
9007;SDS011;62813;51.424;6.762;2022-10-31T04:10:25;17.37;;;8.43;;
9007;SDS011;62813;51.424;6.762;2022-10-31T04:13:01;16.60;;;8.70;;
9007;SDS011;62813;51.424;6.762;2022-10-31T04:15:31;11.17;;;7.83;;
9007;SDS011;62813;51.424;6.762;2022-10-31T04:17:58;17.00;;;8.13;;
9007;SDS011;62813;51.424;6.762;2022-10-31T04:20:34;11.67;;;8.00;;
9007;SDS011;62813;51.424;6.762;2022-10-31T04:23:02;14.13;;;8.10;;
9007;SDS011;62813;51.424;6.762;2022-10-31T04:25:30;12.57;;;8.63;;
9007;SDS011;62813;51.424;6.762;2022-10-31T04:27:56;15.07;;;7.97;;
9007;SDS011;62813;51.424;6.762;2022-10-31T04:30:23;15.87;;;8.50;;
9007;SDS011;62813;51.424;6.762;2022-10-31T04:32:50;16.80;;;8.43;;
9007;SDS011;62813;51.424;6.762;2022-10-31T04:35:16;15.23;;;8.63;;
9007;SDS011;62813;51.424;6.762;2022-10-31T04:37:43;15.73;;;9.03;;
9007;SDS011;62813;51.424;6.762;2022-10-31T04:40:10;13.57;;;8.80;;
9007;SDS011;62813;51.424;6.762;2022-10-31T04:42:36;21.37;;;9.10;;
9007;SDS011;62813;51.424;6.762;2022-10-31T04:45:03;13.17;;;7.83;;
9007;SDS011;62813;51.424;6.762;2022-10-31T04:47:31;18.53;;;9.37;;
9007;SDS011;62813;51.424;6.762;2022-10-31T04:49:59;15.30;;;8.43;;
9007;SDS011;62813;51.424;6.762;2022-10-31T04:52:25;15.80;;;9.53;;
9007;SDS011;62813;51.424;6.762;2022-10-31T04:54:52;12.80;;;8.30;;
9007;SDS011;62813;51.424;6.762;2022-10-31T04:57:19;19.47;;;8.67;;
9007;SDS011;62813;51.424;6.762;2022-10-31T04:59:45;17.43;;;9.60;;
9007;SDS011;62813;51.424;6.762;2022-10-31T05:02:12;16.70;;;8.60;;
9007;SDS011;62813;51.424;6.762;2022-10-31T05:04:39;23.13;;;9.20;;
9007;SDS011;62813;51.424;6.762;2022-10-31T05:07:05;19.37;;;9.70;;
9007;SDS011;62813;51.424;6.762;2022-10-31T05:09:32;17.87;;;10.17;;
9007;SDS011;62813;51.424;6.762;2022-10-31T05:11:58;16.23;;;9.50;;
9007;SDS011;62813;51.424;6.762;2022-10-31T05:14:25;20.33;;;10.03;;
9007;SDS011;62813;51.424;6.762;2022-10-31T05:16:51;16.27;;;9.97;;
9007;SDS011;62813;51.424;6.762;2022-10-31T05:19:18;17.60;;;9.63;;
9007;SDS011;62813;51.424;6.762;2022-10-31T05:21:44;15.90;;;9.30;;
9007;SDS011;62813;51.424;6.762;2022-10-31T05:24:11;15.73;;;9.67;;
9007;SDS011;62813;51.424;6.762;2022-10-31T05:26:37;15.23;;;8.90;;
9007;SDS011;62813;51.424;6.762;2022-10-31T05:29:04;16.47;;;9.80;;
9007;SDS011;62813;51.424;6.762;2022-10-31T05:31:31;25.13;;;10.10;;
9007;SDS011;62813;51.424;6.762;2022-10-31T05:33:57;18.00;;;10.00;;
9007;SDS011;62813;51.424;6.762;2022-10-31T05:36:24;18.70;;;10.60;;
9007;SDS011;62813;51.424;6.762;2022-10-31T05:38:50;16.60;;;10.53;;
9007;SDS011;62813;51.424;6.762;2022-10-31T05:41:17;18.73;;;9.00;;
9007;SDS011;62813;51.424;6.762;2022-10-31T05:43:44;17.23;;;10.10;;
9007;SDS011;62813;51.424;6.762;2022-10-31T05:46:11;18.73;;;10.13;;
9007;SDS011;62813;51.424;6.762;2022-10-31T05:48:37;19.50;;;10.10;;
9007;SDS011;62813;51.424;6.762;2022-10-31T05:51:04;19.87;;;10.50;;
9007;SDS011;62813;51.424;6.762;2022-10-31T05:53:31;23.67;;;9.80;;
9007;SDS011;62813;51.424;6.762;2022-10-31T05:55:57;15.73;;;9.03;;
9007;SDS011;62813;51.424;6.762;2022-10-31T05:58:24;15.07;;;9.03;;
9007;SDS011;62813;51.424;6.762;2022-10-31T06:00:50;16.00;;;9.70;;
9007;SDS011;62813;51.424;6.762;2022-10-31T06:03:17;15.30;;;10.43;;
9007;SDS011;62813;51.424;6.762;2022-10-31T06:05:43;17.17;;;9.43;;
9007;SDS011;62813;51.424;6.762;2022-10-31T06:08:17;20.57;;;9.50;;
9007;SDS011;62813;51.424;6.762;2022-10-31T06:10:44;24.03;;;10.80;;
9007;SDS011;62813;51.424;6.762;2022-10-31T06:13:10;19.20;;;9.87;;
9007;SDS011;62813;51.424;6.762;2022-10-31T06:15:37;16.50;;;10.10;;
9007;SDS011;62813;51.424;6.762;2022-10-31T06:18:04;15.80;;;10.40;;
9007;SDS011;62813;51.424;6.762;2022-10-31T06:20:32;19.07;;;9.90;;
9007;SDS011;62813;51.424;6.762;2022-10-31T06:22:59;18.40;;;9.77;;
9007;SDS011;62813;51.424;6.762;2022-10-31T06:25:27;14.43;;;10.10;;
9007;SDS011;62813;51.424;6.762;2022-10-31T06:27:54;16.50;;;9.60;;
9007;SDS011;62813;51.424;6.762;2022-10-31T06:30:22;18.33;;;9.97;;
9007;SDS011;62813;51.424;6.762;2022-10-31T06:32:48;19.57;;;10.07;;
9007;SDS011;62813;51.424;6.762;2022-10-31T06:35:16;24.50;;;10.33;;
9007;SDS011;62813;51.424;6.762;2022-10-31T06:37:43;14.70;;;9.47;;
9007;SDS011;62813;51.424;6.762;2022-10-31T06:40:16;15.73;;;10.37;;
9007;SDS011;62813;51.424;6.762;2022-10-31T06:42:43;16.33;;;9.63;;
9007;SDS011;62813;51.424;6.762;2022-10-31T06:45:10;17.57;;;9.93;;
9007;SDS011;62813;51.424;6.762;2022-10-31T06:47:36;15.10;;;9.47;;
9007;SDS011;62813;51.424;6.762;2022-10-31T06:50:22;19.77;;;9.83;;
9007;SDS011;62813;51.424;6.762;2022-10-31T06:52:50;16.53;;;9.30;;
9007;SDS011;62813;51.424;6.762;2022-10-31T06:55:17;16.30;;;9.60;;
9007;SDS011;62813;51.424;6.762;2022-10-31T06:57:50;14.07;;;9.23;;
9007;SDS011;62813;51.424;6.762;2022-10-31T07:00:27;18.90;;;9.53;;
9007;SDS011;62813;51.424;6.762;2022-10-31T07:03:02;16.53;;;9.53;;
9007;SDS011;62813;51.424;6.762;2022-10-31T07:05:31;17.77;;;9.40;;
9007;SDS011;62813;51.424;6.762;2022-10-31T07:07:58;17.00;;;9.57;;
9007;SDS011;62813;51.424;6.762;2022-10-31T07:10:27;14.67;;;9.77;;
9007;SDS011;62813;51.424;6.762;2022-10-31T07:13:00;16.07;;;9.77;;
9007;SDS011;62813;51.424;6.762;2022-10-31T07:15:29;17.20;;;9.53;;
9007;SDS011;62813;51.424;6.762;2022-10-31T07:17:59;14.13;;;9.50;;
9007;SDS011;62813;51.424;6.762;2022-10-31T07:20:27;16.67;;;10.40;;
9007;SDS011;62813;51.424;6.762;2022-10-31T07:22:55;13.60;;;9.73;;
9007;SDS011;62813;51.424;6.762;2022-10-31T07:25:21;16.43;;;10.13;;
9007;SDS011;62813;51.424;6.762;2022-10-31T07:27:48;15.27;;;10.23;;
9007;SDS011;62813;51.424;6.762;2022-10-31T07:30:15;16.83;;;9.70;;
9007;SDS011;62813;51.424;6.762;2022-10-31T07:32:48;19.27;;;10.30;;
9007;SDS011;62813;51.424;6.762;2022-10-31T07:35:16;18.63;;;9.77;;
9007;SDS011;62813;51.424;6.762;2022-10-31T07:44:13;15.60;;;9.17;;
9007;SDS011;62813;51.424;6.762;2022-10-31T07:46:40;14.00;;;9.43;;
9007;SDS011;62813;51.424;6.762;2022-10-31T07:49:07;19.60;;;9.90;;
9007;SDS011;62813;51.424;6.762;2022-10-31T07:51:34;19.30;;;10.40;;
9007;SDS011;62813;51.424;6.762;2022-10-31T07:54:00;15.23;;;9.60;;
9007;SDS011;62813;51.424;6.762;2022-10-31T07:56:27;16.30;;;10.57;;
9007;SDS011;62813;51.424;6.762;2022-10-31T07:58:53;16.37;;;9.70;;
9007;SDS011;62813;51.424;6.762;2022-10-31T08:01:20;20.67;;;10.70;;
9007;SDS011;62813;51.424;6.762;2022-10-31T08:03:46;21.27;;;10.63;;
9007;SDS011;62813;51.424;6.762;2022-10-31T08:06:13;15.30;;;9.57;;
9007;SDS011;62813;51.424;6.762;2022-10-31T08:08:42;19.23;;;10.73;;
9007;SDS011;62813;51.424;6.762;2022-10-31T08:11:09;17.53;;;10.13;;
9007;SDS011;62813;51.424;6.762;2022-10-31T08:13:35;16.10;;;10.27;;
9007;SDS011;62813;51.424;6.762;2022-10-31T08:16:02;16.53;;;10.03;;
9007;SDS011;62813;51.424;6.762;2022-10-31T08:18:30;20.20;;;10.47;;
9007;SDS011;62813;51.424;6.762;2022-10-31T08:20:57;16.77;;;10.77;;
9007;SDS011;62813;51.424;6.762;2022-10-31T08:23:23;19.63;;;10.97;;
9007;SDS011;62813;51.424;6.762;2022-10-31T08:25:50;15.93;;;10.57;;
9007;SDS011;62813;51.424;6.762;2022-10-31T08:28:16;16.67;;;10.87;;
9007;SDS011;62813;51.424;6.762;2022-10-31T08:30:43;15.33;;;10.97;;
9007;SDS011;62813;51.424;6.762;2022-10-31T08:33:16;15.00;;;9.83;;
9007;SDS011;62813;51.424;6.762;2022-10-31T08:35:44;19.73;;;11.27;;
9007;SDS011;62813;51.424;6.762;2022-10-31T08:38:11;17.17;;;11.07;;
9007;SDS011;62813;51.424;6.762;2022-10-31T08:40:38;22.93;;;12.43;;
9007;SDS011;62813;51.424;6.762;2022-10-31T08:43:06;26.17;;;12.40;;
9007;SDS011;62813;51.424;6.762;2022-10-31T08:45:37;21.47;;;12.93;;
9007;SDS011;62813;51.424;6.762;2022-10-31T08:48:04;20.53;;;12.30;;
9007;SDS011;62813;51.424;6.762;2022-10-31T08:50:33;20.27;;;12.93;;
9007;SDS011;62813;51.424;6.762;2022-10-31T08:53:01;19.73;;;12.37;;
9007;SDS011;62813;51.424;6.762;2022-10-31T08:55:32;20.63;;;13.43;;
9007;SDS011;62813;51.424;6.762;2022-10-31T08:58:03;19.10;;;13.80;;
9007;SDS011;62813;51.424;6.762;2022-10-31T09:00:31;23.27;;;13.97;;
9007;SDS011;62813;51.424;6.762;2022-10-31T09:02:59;21.37;;;13.50;;
9007;SDS011;62813;51.424;6.762;2022-10-31T09:05:27;19.53;;;12.90;;
9007;SDS011;62813;51.424;6.762;2022-10-31T09:07:57;24.00;;;13.83;;
9007;SDS011;62813;51.424;6.762;2022-10-31T09:10:26;26.40;;;13.67;;
9007;SDS011;62813;51.424;6.762;2022-10-31T09:12:54;23.70;;;13.70;;
9007;SDS011;62813;51.424;6.762;2022-10-31T09:15:26;28.20;;;14.00;;
9007;SDS011;62813;51.424;6.762;2022-10-31T09:17:53;25.23;;;15.40;;
9007;SDS011;62813;51.424;6.762;2022-10-31T09:20:20;21.33;;;14.80;;
9007;SDS011;62813;51.424;6.762;2022-10-31T09:22:47;27.20;;;15.03;;
9007;SDS011;62813;51.424;6.762;2022-10-31T09:25:13;26.37;;;15.77;;
9007;SDS011;62813;51.424;6.762;2022-10-31T09:27:40;20.53;;;13.70;;
9007;SDS011;62813;51.424;6.762;2022-10-31T09:30:06;24.50;;;14.70;;
9007;SDS011;62813;51.424;6.762;2022-10-31T09:32:33;21.37;;;14.07;;
9007;SDS011;62813;51.424;6.762;2022-10-31T09:35:00;21.00;;;14.17;;
9007;SDS011;62813;51.424;6.762;2022-10-31T09:37:27;22.17;;;14.70;;
9007;SDS011;62813;51.424;6.762;2022-10-31T09:39:54;22.80;;;14.17;;
9007;SDS011;62813;51.424;6.762;2022-10-31T09:51:03;20.67;;;12.97;;
9007;SDS011;62813;51.424;6.762;2022-10-31T09:53:42;22.40;;;12.43;;
9007;SDS011;62813;51.424;6.762;2022-10-31T09:56:21;24.03;;;13.23;;
9007;SDS011;62813;51.424;6.762;2022-10-31T09:58:59;19.13;;;12.33;;
9007;SDS011;62813;51.424;6.762;2022-10-31T10:03:55;20.23;;;13.43;;
9007;SDS011;62813;51.424;6.762;2022-10-31T10:06:32;19.70;;;13.43;;
9007;SDS011;62813;51.424;6.762;2022-10-31T10:09:01;23.97;;;14.80;;
9007;SDS011;62813;51.424;6.762;2022-10-31T10:11:47;20.37;;;13.63;;
9007;SDS011;62813;51.424;6.762;2022-10-31T10:30:47;21.80;;;15.50;;
9007;SDS011;62813;51.424;6.762;2022-10-31T10:33:19;28.80;;;16.67;;
9007;SDS011;62813;51.424;6.762;2022-10-31T10:35:50;25.43;;;16.77;;
9007;SDS011;62813;51.424;6.762;2022-10-31T10:41:14;28.97;;;18.40;;
9007;SDS011;62813;51.424;6.762;2022-10-31T10:43:43;35.50;;;18.63;;
9007;SDS011;62813;51.424;6.762;2022-10-31T10:46:43;30.27;;;18.47;;
9007;SDS011;62813;51.424;6.762;2022-10-31T10:57:50;33.60;;;17.40;;
9007;SDS011;62813;51.424;6.762;2022-10-31T11:00:23;28.03;;;17.80;;
9007;SDS011;62813;51.424;6.762;2022-10-31T11:02:50;20.97;;;15.03;;
9007;SDS011;62813;51.424;6.762;2022-10-31T11:08:11;28.27;;;16.80;;
9007;SDS011;62813;51.424;6.762;2022-10-31T11:10:59;29.77;;;17.73;;
9007;SDS011;62813;51.424;6.762;2022-10-31T11:13:30;26.03;;;17.23;;
9007;SDS011;62813;51.424;6.762;2022-10-31T11:16:08;29.13;;;17.30;;
9007;SDS011;62813;51.424;6.762;2022-10-31T11:18:39;24.43;;;16.70;;
9007;SDS011;62813;51.424;6.762;2022-10-31T11:21:19;28.67;;;17.50;;
9007;SDS011;62813;51.424;6.762;2022-10-31T11:23:47;25.93;;;17.07;;
9007;SDS011;62813;51.424;6.762;2022-10-31T11:26:18;25.57;;;15.73;;
9007;SDS011;62813;51.424;6.762;2022-10-31T11:29:32;28.23;;;14.97;;
9007;SDS011;62813;51.424;6.762;2022-10-31T11:31:52;27.53;;;15.87;;
9007;SDS011;62813;51.424;6.762;2022-10-31T11:34:25;26.57;;;14.57;;
9007;SDS011;62813;51.424;6.762;2022-10-31T11:36:58;25.97;;;14.53;;
9007;SDS011;62813;51.424;6.762;2022-10-31T11:39:29;22.50;;;14.50;;
9007;SDS011;62813;51.424;6.762;2022-10-31T11:41:59;24.73;;;14.47;;
9007;SDS011;62813;51.424;6.762;2022-10-31T11:44:33;28.67;;;15.10;;
9007;SDS011;62813;51.424;6.762;2022-10-31T11:47:01;20.77;;;13.30;;
9007;SDS011;62813;51.424;6.762;2022-10-31T11:49:31;22.20;;;13.90;;
9007;SDS011;62813;51.424;6.762;2022-10-31T11:57:50;23.77;;;12.43;;
9007;SDS011;62813;51.424;6.762;2022-10-31T12:00:36;18.13;;;12.07;;
9007;SDS011;62813;51.424;6.762;2022-10-31T12:08:31;18.97;;;11.23;;
9007;SDS011;62813;51.424;6.762;2022-10-31T12:13:34;19.23;;;10.90;;
9007;SDS011;62813;51.424;6.762;2022-10-31T12:16:28;18.63;;;11.70;;
9007;SDS011;62813;51.424;6.762;2022-10-31T12:19:06;17.53;;;9.83;;
9007;SDS011;62813;51.424;6.762;2022-10-31T12:30:15;18.37;;;10.60;;
9007;SDS011;62813;51.424;6.762;2022-10-31T12:33:11;16.53;;;8.77;;
9007;SDS011;62813;51.424;6.762;2022-10-31T12:44:34;17.27;;;8.77;;
9007;SDS011;62813;51.424;6.762;2022-10-31T12:55:22;21.20;;;8.63;;
9007;SDS011;62813;51.424;6.762;2022-10-31T12:58:17;15.07;;;7.10;;
9007;SDS011;62813;51.424;6.762;2022-10-31T13:01:33;12.50;;;7.10;;
9007;SDS011;62813;51.424;6.762;2022-10-31T13:04:17;15.80;;;7.77;;
9007;SDS011;62813;51.424;6.762;2022-10-31T13:06:53;15.67;;;7.80;;
9007;SDS011;62813;51.424;6.762;2022-10-31T13:09:26;16.60;;;8.37;;
9007;SDS011;62813;51.424;6.762;2022-10-31T13:12:11;16.60;;;7.50;;
9007;SDS011;62813;51.424;6.762;2022-10-31T13:17:25;13.07;;;7.23;;
9007;SDS011;62813;51.424;6.762;2022-10-31T13:20:02;16.07;;;7.40;;
9007;SDS011;62813;51.424;6.762;2022-10-31T13:22:39;16.70;;;7.83;;
9007;SDS011;62813;51.424;6.762;2022-10-31T13:25:23;18.37;;;7.93;;
9007;SDS011;62813;51.424;6.762;2022-10-31T13:27:59;15.67;;;7.60;;
9007;SDS011;62813;51.424;6.762;2022-10-31T13:30:31;17.00;;;7.00;;
9007;SDS011;62813;51.424;6.762;2022-10-31T13:33:22;11.90;;;7.07;;
9007;SDS011;62813;51.424;6.762;2022-10-31T13:46:54;10.27;;;5.80;;
9007;SDS011;62813;51.424;6.762;2022-10-31T13:49:36;12.37;;;5.10;;
9007;SDS011;62813;51.424;6.762;2022-10-31T13:52:25;10.73;;;5.00;;
9007;SDS011;62813;51.424;6.762;2022-10-31T13:54:52;10.17;;;4.60;;
9007;SDS011;62813;51.424;6.762;2022-10-31T13:57:33;14.83;;;4.97;;
9007;SDS011;62813;51.424;6.762;2022-10-31T14:02:48;12.50;;;4.27;;
9007;SDS011;62813;51.424;6.762;2022-10-31T14:07:51;9.70;;;4.27;;
9007;SDS011;62813;51.424;6.762;2022-10-31T14:10:20;7.40;;;4.07;;
9007;SDS011;62813;51.424;6.762;2022-10-31T14:13:03;8.60;;;4.40;;
9007;SDS011;62813;51.424;6.762;2022-10-31T14:15:34;11.03;;;4.40;;
9007;SDS011;62813;51.424;6.762;2022-10-31T14:18:04;8.50;;;4.03;;
9007;SDS011;62813;51.424;6.762;2022-10-31T14:20:52;10.03;;;4.00;;
9007;SDS011;62813;51.424;6.762;2022-10-31T14:23:31;9.67;;;4.50;;
9007;SDS011;62813;51.424;6.762;2022-10-31T14:28:54;16.93;;;4.33;;
9007;SDS011;62813;51.424;6.762;2022-10-31T14:31:39;11.20;;;4.10;;
9007;SDS011;62813;51.424;6.762;2022-10-31T14:39:29;18.07;;;4.67;;
9007;SDS011;62813;51.424;6.762;2022-10-31T14:53:10;14.30;;;4.30;;
9007;SDS011;62813;51.424;6.762;2022-10-31T14:55:43;11.00;;;4.10;;
9007;SDS011;62813;51.424;6.762;2022-10-31T14:58:15;9.53;;;4.00;;
9007;SDS011;62813;51.424;6.762;2022-10-31T15:00:49;10.93;;;4.33;;
9007;SDS011;62813;51.424;6.762;2022-10-31T15:03:24;10.80;;;4.17;;
9007;SDS011;62813;51.424;6.762;2022-10-31T15:06:30;16.30;;;4.27;;
9007;SDS011;62813;51.424;6.762;2022-10-31T15:09:24;11.70;;;4.00;;
9007;SDS011;62813;51.424;6.762;2022-10-31T15:11:52;9.70;;;4.07;;
9007;SDS011;62813;51.424;6.762;2022-10-31T15:14:23;9.57;;;3.80;;
9007;SDS011;62813;51.424;6.762;2022-10-31T15:16:52;12.10;;;4.97;;
9007;SDS011;62813;51.424;6.762;2022-10-31T15:19:24;11.03;;;3.67;;
9007;SDS011;62813;51.424;6.762;2022-10-31T15:21:53;10.83;;;4.23;;
9007;SDS011;62813;51.424;6.762;2022-10-31T15:24:23;16.67;;;4.17;;
9007;SDS011;62813;51.424;6.762;2022-10-31T15:26:56;8.63;;;3.73;;
9007;SDS011;62813;51.424;6.762;2022-10-31T15:29:30;14.20;;;4.27;;
9007;SDS011;62813;51.424;6.762;2022-10-31T15:31:58;17.50;;;4.30;;
9007;SDS011;62813;51.424;6.762;2022-10-31T15:34:44;13.83;;;4.20;;
9007;SDS011;62813;51.424;6.762;2022-10-31T15:37:13;9.87;;;4.60;;
9007;SDS011;62813;51.424;6.762;2022-10-31T15:39:41;11.00;;;4.07;;
9007;SDS011;62813;51.424;6.762;2022-10-31T15:42:17;6.43;;;3.13;;
9007;SDS011;62813;51.424;6.762;2022-10-31T15:44:45;13.83;;;4.70;;
9007;SDS011;62813;51.424;6.762;2022-10-31T15:47:22;13.10;;;4.27;;
9007;SDS011;62813;51.424;6.762;2022-10-31T15:49:54;12.30;;;4.03;;
9007;SDS011;62813;51.424;6.762;2022-10-31T15:57:40;13.93;;;4.13;;
9007;SDS011;62813;51.424;6.762;2022-10-31T16:03:03;11.27;;;3.73;;
9007;SDS011;62813;51.424;6.762;2022-10-31T16:05:37;13.27;;;4.77;;
9007;SDS011;62813;51.424;6.762;2022-10-31T16:10:55;13.83;;;4.33;;
9007;SDS011;62813;51.424;6.762;2022-10-31T16:13:27;11.33;;;4.13;;
9007;SDS011;62813;51.424;6.762;2022-10-31T16:15:59;9.47;;;4.43;;
9007;SDS011;62813;51.424;6.762;2022-10-31T16:18:48;13.77;;;4.43;;
9007;SDS011;62813;51.424;6.762;2022-10-31T16:21:22;9.97;;;4.60;;
9007;SDS011;62813;51.424;6.762;2022-10-31T16:23:53;10.93;;;3.70;;
9007;SDS011;62813;51.424;6.762;2022-10-31T16:26:23;13.33;;;4.20;;
9007;SDS011;62813;51.424;6.762;2022-10-31T16:28:51;12.30;;;4.53;;
9007;SDS011;62813;51.424;6.762;2022-10-31T16:31:36;12.93;;;4.33;;
9007;SDS011;62813;51.424;6.762;2022-10-31T16:34:05;14.07;;;4.93;;
9007;SDS011;62813;51.424;6.762;2022-10-31T16:36:39;11.30;;;4.27;;
9007;SDS011;62813;51.424;6.762;2022-10-31T16:39:06;9.60;;;3.87;;
9007;SDS011;62813;51.424;6.762;2022-10-31T16:41:40;10.70;;;4.27;;
9007;SDS011;62813;51.424;6.762;2022-10-31T16:44:18;12.43;;;4.37;;
9007;SDS011;62813;51.424;6.762;2022-10-31T16:46:51;10.73;;;4.20;;
9007;SDS011;62813;51.424;6.762;2022-10-31T16:49:34;12.40;;;4.50;;
9007;SDS011;62813;51.424;6.762;2022-10-31T16:52:00;10.50;;;4.73;;
9007;SDS011;62813;51.424;6.762;2022-10-31T16:54:28;9.47;;;4.17;;
9007;SDS011;62813;51.424;6.762;2022-10-31T16:56:55;8.40;;;4.20;;
9007;SDS011;62813;51.424;6.762;2022-10-31T16:59:23;10.53;;;4.43;;
9007;SDS011;62813;51.424;6.762;2022-10-31T17:01:50;14.83;;;4.77;;
9007;SDS011;62813;51.424;6.762;2022-10-31T17:04:16;8.77;;;4.63;;
9007;SDS011;62813;51.424;6.762;2022-10-31T17:06:43;9.13;;;4.67;;
9007;SDS011;62813;51.424;6.762;2022-10-31T17:09:10;6.20;;;4.10;;
9007;SDS011;62813;51.424;6.762;2022-10-31T17:11:37;12.23;;;5.00;;
9007;SDS011;62813;51.424;6.762;2022-10-31T17:14:15;11.77;;;4.77;;
9007;SDS011;62813;51.424;6.762;2022-10-31T17:16:42;10.77;;;4.80;;
9007;SDS011;62813;51.424;6.762;2022-10-31T17:19:09;9.90;;;4.50;;
9007;SDS011;62813;51.424;6.762;2022-10-31T17:21:37;13.83;;;5.00;;
9007;SDS011;62813;51.424;6.762;2022-10-31T17:24:08;12.93;;;4.70;;
9007;SDS011;62813;51.424;6.762;2022-10-31T17:26:38;11.87;;;5.57;;
9007;SDS011;62813;51.424;6.762;2022-10-31T17:29:05;12.30;;;5.30;;
9007;SDS011;62813;51.424;6.762;2022-10-31T17:31:33;10.03;;;5.43;;
9007;SDS011;62813;51.424;6.762;2022-10-31T17:34:02;14.17;;;5.73;;
9007;SDS011;62813;51.424;6.762;2022-10-31T17:36:31;11.53;;;5.03;;
9007;SDS011;62813;51.424;6.762;2022-10-31T17:39:01;11.57;;;5.10;;
9007;SDS011;62813;51.424;6.762;2022-10-31T17:41:30;11.17;;;4.80;;
9007;SDS011;62813;51.424;6.762;2022-10-31T17:43:57;12.53;;;5.33;;
9007;SDS011;62813;51.424;6.762;2022-10-31T17:46:24;15.93;;;5.17;;
9007;SDS011;62813;51.424;6.762;2022-10-31T17:48:51;16.43;;;5.27;;
9007;SDS011;62813;51.424;6.762;2022-10-31T17:51:18;10.27;;;4.53;;